Time;durP1;ratioP1;P1;durP2;ratioP2;P2;SDS_P1;SDS_P2;PMS_P1;PMS_P2;Temp;Humidity;BMP_temperature;BMP_pressure;BME280_temperature;BME280_humidity;BME280_pressure;Samples;Min_cycle;Max_cycle;Signal;HPM_P1;HPM_P2
2021/12/22 00:00:11;;;;;;;71.20;32.63;;;;;;;0.79;63.89;102708.50;5154690;28;20435;-40
2021/12/22 00:02:48;;;;;;;74.72;32.47;;;;;;;0.73;63.87;102698.28;5148444;28;20954;-42
2021/12/22 00:05:25;;;;;;;70.22;34.45;;;;;;;0.77;63.92;102707.69;5137537;28;20418;-41
2021/12/22 00:07:58;;;;;;;77.72;34.47;;;;;;;0.61;63.86;102698.59;5152918;28;20761;-42
2021/12/22 00:10:30;;;;;;;70.72;32.85;;;;;;;0.69;63.79;102707.91;5154118;28;20446;-42
2021/12/22 00:13:02;;;;;;;67.60;29.53;;;;;;;0.69;63.73;102727.88;5149001;28;20418;-41
2021/12/22 00:15:34;;;;;;;66.50;30.15;;;;;;;0.64;63.71;102708.91;5154959;28;20780;-43
2021/12/22 00:18:08;;;;;;;66.68;33.75;;;;;;;0.62;63.99;102708.09;5152591;28;20436;-42
2021/12/22 00:20:41;;;;;;;67.47;31.23;;;;;;;0.60;63.84;102707.31;5154802;28;20422;-42
2021/12/22 00:23:13;;;;;;;67.28;31.70;;;;;;;0.59;63.78;102711.66;5153055;28;20424;-41
2021/12/22 00:25:46;;;;;;;78.88;34.50;;;;;;;0.54;63.90;102707.47;5156143;28;20561;-41
2021/12/22 00:28:18;;;;;;;66.13;33.50;;;;;;;0.50;63.84;102704.09;5153813;28;20430;-43
2021/12/22 00:30:52;;;;;;;69.40;31.08;;;;;;;0.47;63.82;102705.91;5161692;28;20420;-46
2021/12/22 00:33:27;;;;;;;72.88;33.55;;;;;;;0.48;64.19;102710.22;5160756;28;20506;-42
2021/12/22 00:35:59;;;;;;;61.55;29.20;;;;;;;0.45;63.73;102706.78;5153898;28;20507;-41
2021/12/22 00:38:32;;;;;;;57.63;29.85;;;;;;;0.43;64.02;102710.31;5151845;28;20406;-42
2021/12/22 00:41:05;;;;;;;67.70;32.50;;;;;;;0.40;64.19;102718.19;5160571;28;20442;-42
2021/12/22 00:43:38;;;;;;;65.30;33.20;;;;;;;0.36;64.06;102711.38;5155959;28;20425;-44
2021/12/22 00:46:12;;;;;;;66.20;32.38;;;;;;;0.36;63.93;102709.63;5162271;28;20794;-43
2021/12/22 00:48:46;;;;;;;68.95;32.40;;;;;;;0.26;63.96;102687.34;5163937;28;20426;-42
2021/12/22 00:51:18;;;;;;;90.82;36.25;;;;;;;0.32;64.23;102705.41;5150897;28;20426;-43
2021/12/22 00:53:51;;;;;;;74.38;34.83;;;;;;;0.32;64.32;102708.00;5153154;28;20910;-40
2021/12/22 00:56:23;;;;;;;72.43;34.30;;;;;;;0.32;64.23;102713.19;5161683;28;20404;-39
2021/12/22 00:58:55;;;;;;;81.88;37.40;;;;;;;0.33;63.95;102706.25;5158645;28;20467;-42
2021/12/22 01:01:28;;;;;;;80.85;35.60;;;;;;;0.34;64.13;102708.81;5143835;28;20897;-42
2021/12/22 01:04:02;;;;;;;73.55;35.45;;;;;;;0.35;64.23;102713.13;5149419;28;20533;-46
2021/12/22 01:06:35;;;;;;;75.13;35.13;;;;;;;0.35;64.02;102709.66;5157711;28;20593;-41
2021/12/22 01:09:08;;;;;;;85.88;38.35;;;;;;;0.33;64.18;102709.69;5157204;28;20519;-42
2021/12/22 01:11:41;;;;;;;76.93;34.85;;;;;;;0.32;64.20;102700.19;5152542;28;20470;-41
2021/12/22 01:14:14;;;;;;;68.18;33.45;;;;;;;0.20;64.07;102684.91;5155161;28;20424;-41
2021/12/22 01:16:48;;;;;;;74.68;34.72;;;;;;;0.31;64.08;102701.09;5147405;28;23437;-41
2021/12/22 01:19:30;;;;;;;66.68;32.28;;;;;;;0.30;63.94;102707.16;5142642;28;20896;-41
2021/12/22 01:22:17;;;;;;;72.88;34.25;;;;;;;0.14;64.21;102687.66;5132228;28;20429;-43
2021/12/22 01:24:59;;;;;;;70.63;32.22;;;;;;;0.25;64.06;102711.66;5143467;28;22248;-42
2021/12/22 01:27:52;;;;;;;69.22;32.22;;;;;;;0.17;64.27;102696.22;5132835;28;20420;-43
2021/12/22 01:30:28;;;;;;;71.95;33.95;;;;;;;0.18;64.08;102710.06;5139178;28;20473;-42
2021/12/22 01:33:02;;;;;;;69.75;33.92;;;;;;;0.18;64.06;102710.06;5145897;28;20559;-41
2021/12/22 01:35:37;;;;;;;66.15;33.10;;;;;;;0.17;64.24;102713.56;5151347;28;20440;-42
2021/12/22 01:38:10;;;;;;;71.38;37.50;;;;;;;0.16;64.30;102711.88;5153249;28;20479;-44
2021/12/22 01:40:46;;;;;;;69.18;35.92;;;;;;;0.14;64.15;102711.03;5151905;28;21023;-41
2021/12/22 01:43:18;;;;;;;73.72;36.55;;;;;;;0.13;64.14;102710.19;5158419;28;20498;-42
2021/12/22 01:46:08;;;;;;;69.70;33.35;;;;;;;0.14;64.00;102708.44;5155364;28;20857;-41
2021/12/22 01:51:46;;;;;;;68.28;34.95;;;;;;;0.11;64.47;102704.16;5159103;28;20918;-42
2021/12/22 01:54:33;;;;;;;66.83;33.50;;;;;;;0.10;64.33;102705.06;5158903;28;21186;-41
2021/12/22 01:57:10;;;;;;;69.45;36.42;;;;;;;0.09;64.18;102705.09;5150488;28;22239;-41
2021/12/22 01:59:46;;;;;;;61.53;34.22;;;;;;;0.09;64.03;102707.69;5155392;28;20508;-46
2021/12/22 02:02:18;;;;;;;67.45;38.95;;;;;;;0.07;64.21;102707.72;5150148;28;20424;-42
2021/12/22 02:04:51;;;;;;;64.70;38.45;;;;;;;0.05;64.35;102708.66;5153314;28;20887;-42
2021/12/22 02:07:25;;;;;;;62.75;36.63;;;;;;;0.05;64.38;102713.84;5151145;28;20902;-41
2021/12/22 02:10:08;;;;;;;70.35;37.75;;;;;;;0.02;64.49;102716.53;5144383;28;20415;-48
2021/12/22 02:12:46;;;;;;;57.30;34.03;;;;;;;0.01;64.56;102720.03;5149616;28;20487;-42
2021/12/22 02:15:19;;;;;;;65.15;34.75;;;;;;;-0.03;64.33;102717.50;5158494;28;20413;-41
2021/12/22 02:17:56;;;;;;;60.13;32.97;;;;;;;-0.06;64.61;102722.75;5160394;28;20409;-41
2021/12/22 02:20:30;;;;;;;60.03;35.35;;;;;;;-0.08;64.27;102719.31;5156048;28;20422;-45
2021/12/22 02:23:02;;;;;;;54.70;33.92;;;;;;;-0.09;64.36;102719.38;5165685;28;20401;-48
2021/12/22 02:25:42;;;;;;;57.97;33.70;;;;;;;-0.11;64.29;102724.59;5147993;28;20568;-41
2021/12/22 02:28:20;;;;;;;59.58;33.88;;;;;;;-0.14;64.68;102724.66;5156907;28;20931;-44
2021/12/22 02:30:53;;;;;;;68.57;37.53;;;;;;;-0.14;64.65;102722.06;5153207;28;20420;-40
2021/12/22 02:33:33;;;;;;;72.75;38.78;;;;;;;-0.13;64.61;102726.34;5155432;28;20406;-44
2021/12/22 02:36:19;;;;;;;77.70;38.95;;;;;;;-0.14;64.47;102714.28;5153881;28;20496;-43
2021/12/22 02:38:55;;;;;;;73.35;37.50;;;;;;;-0.17;64.82;102722.13;5152439;28;20483;-41
2021/12/22 02:41:30;;;;;;;70.05;38.70;;;;;;;-0.18;64.77;102717.84;5150118;28;20415;-46
2021/12/22 02:44:03;;;;;;;67.78;38.22;;;;;;;-0.19;64.82;102700.53;5151736;28;20416;-41
2021/12/22 02:46:38;;;;;;;74.00;39.97;;;;;;;-0.21;64.54;102698.88;5154123;28;20513;-43
2021/12/22 02:49:28;;;;;;;73.78;38.03;;;;;;;-0.18;64.75;102704.84;5157661;28;20426;-42
2021/12/22 02:52:02;;;;;;;73.82;40.03;;;;;;;-0.21;64.49;102699.72;5152975;28;20439;-41
2021/12/22 02:54:41;;;;;;;72.30;38.93;;;;;;;-0.20;64.57;102709.22;5154822;28;20441;-41
2021/12/22 02:57:24;;;;;;;72.53;37.13;;;;;;;-0.19;64.46;102707.47;5146687;28;20496;-40
2021/12/22 03:03:02;;;;;;;85.93;43.43;;;;;;;-0.29;64.87;102704.22;5142100;28;20405;-42
2021/12/22 03:05:36;;;;;;;75.68;38.15;;;;;;;-0.22;64.86;102715.31;5151807;28;20414;-41
2021/12/22 03:08:10;;;;;;;69.35;39.42;;;;;;;-0.22;64.48;102715.31;5151278;28;20433;-45
2021/12/22 03:10:42;;;;;;;76.90;38.20;;;;;;;-0.24;64.68;102708.44;5144078;28;20863;-40
2021/12/22 03:13:15;;;;;;;84.35;39.03;;;;;;;-0.26;64.83;102709.34;5137402;28;20422;-43
2021/12/22 03:16:03;;;;;;;78.33;40.77;;;;;;;-0.26;64.53;102720.59;5153950;28;21773;-50
2021/12/22 03:18:41;;;;;;;78.22;42.63;;;;;;;-0.65;64.79;102641.00;5104297;28;26726;-43
2021/12/22 03:21:20;;;;;;;85.43;42.80;;;;;;;-0.29;64.80;102699.03;5157647;28;20439;-49
2021/12/22 03:23:55;;;;;;;89.60;43.63;;;;;;;-0.29;64.68;102699.03;5140593;28;20754;-41
2021/12/22 03:26:29;;;;;;;88.30;41.50;;;;;;;-0.30;64.75;102686.94;5118195;28;20426;-43
2021/12/22 03:29:01;;;;;;;83.43;43.75;;;;;;;-0.31;64.71;102687.81;5138370;28;21006;-44
2021/12/22 03:31:38;;;;;;;84.73;43.80;;;;;;;-0.31;65.08;102690.41;5151525;28;20507;-43
2021/12/22 03:34:13;;;;;;;91.40;44.83;;;;;;;-0.37;64.63;102675.84;5141080;28;20401;-44
2021/12/22 03:36:46;;;;;;;96.00;46.88;;;;;;;-0.32;64.83;102686.13;5146498;28;20439;-46
2021/12/22 03:39:21;;;;;;;114.00;45.65;;;;;;;-0.31;64.74;102685.22;5147377;28;20402;-43
2021/12/22 03:41:53;;;;;;;98.15;47.95;;;;;;;-0.31;64.99;102682.63;5138005;28;20436;-44
2021/12/22 03:44:26;;;;;;;92.50;46.30;;;;;;;-0.31;65.06;102669.66;5144414;28;20550;-43
2021/12/22 03:47:00;;;;;;;87.88;42.88;;;;;;;-0.38;64.96;102655.09;5147767;28;20426;-44
2021/12/22 03:49:35;;;;;;;84.55;42.90;;;;;;;-0.41;65.03;102655.19;5145069;28;20415;-43
2021/12/22 03:52:08;;;;;;;88.82;44.53;;;;;;;-0.33;64.99;102671.44;5135341;28;20424;-41
2021/12/22 03:54:42;;;;;;;82.40;41.55;;;;;;;-0.32;65.14;102668.78;5157558;28;20428;-43
2021/12/22 03:57:15;;;;;;;91.90;44.28;;;;;;;-0.33;65.08;102668.84;5108937;28;20980;-41
2021/12/22 03:59:48;;;;;;;99.85;47.40;;;;;;;-0.74;65.08;102603.16;5143286;28;20875;-42
2021/12/22 04:02:22;;;;;;;98.63;47.58;;;;;;;-0.33;65.11;102666.25;5126100;28;20451;-41
2021/12/22 04:04:55;;;;;;;102.55;48.63;;;;;;;-0.32;65.07;102667.94;5139820;28;20417;-44
2021/12/22 04:07:28;;;;;;;98.95;45.88;;;;;;;-0.32;65.16;102668.78;5139917;28;20425;-46
2021/12/22 04:10:19;;;;;;;93.28;48.03;;;;;;;-0.32;65.00;102668.78;5142539;28;20406;-41
2021/12/22 04:12:54;;;;;;;110.97;49.65;;;;;;;-0.30;64.95;102673.97;5151274;28;20499;-45
2021/12/22 04:15:28;;;;;;;100.82;50.42;;;;;;;-0.29;65.09;102670.47;5150819;28;20501;-38
2021/12/22 04:18:01;;;;;;;96.97;47.05;;;;;;;-0.27;65.19;102671.31;5147047;28;20486;-41
2021/12/22 04:20:33;;;;;;;95.68;49.55;;;;;;;-0.27;65.09;102666.97;5148456;28;20429;-42
2021/12/22 04:23:07;;;;;;;98.50;47.03;;;;;;;-0.27;65.19;102663.53;5140681;28;20438;-41
2021/12/22 04:25:41;;;;;;;87.40;43.35;;;;;;;-0.25;65.18;102664.31;5146924;28;20532;-40
2021/12/22 04:28:14;;;;;;;86.03;43.85;;;;;;;-0.27;64.96;102658.31;5146127;28;20430;-43
2021/12/22 04:30:50;;;;;;;85.57;44.60;;;;;;;-0.28;65.23;102654.00;5150384;28;20531;-41
2021/12/22 04:33:23;;;;;;;92.75;45.42;;;;;;;-0.31;65.30;102644.56;5150605;28;20426;-41
2021/12/22 04:35:55;;;;;;;90.63;44.58;;;;;;;-0.29;65.08;102639.31;5150183;28;20817;-41
2021/12/22 04:38:28;;;;;;;95.55;47.75;;;;;;;-0.30;65.30;102638.47;5146413;28;20823;-48
2021/12/22 04:41:01;;;;;;;99.13;48.40;;;;;;;-0.30;65.20;102630.69;5145803;28;20503;-41
2021/12/22 04:43:34;;;;;;;94.75;46.08;;;;;;;-0.30;65.28;102632.44;5157241;28;20432;-45
2021/12/22 04:46:06;;;;;;;102.28;49.10;;;;;;;-0.31;65.32;102635.91;5159620;28;20784;-41
2021/12/22 04:48:38;;;;;;;98.05;47.20;;;;;;;-0.32;65.36;102635.03;5147904;28;20536;-41
2021/12/22 04:51:22;;;;;;;100.03;48.10;;;;;;;-0.32;65.39;102636.78;5148906;28;20551;-41
2021/12/22 04:54:01;;;;;;;108.33;50.63;;;;;;;-0.33;65.46;102635.94;5152422;28;20416;-43
2021/12/22 04:57:03;;;;;;;106.80;51.35;;;;;;;-0.31;65.19;102636.78;5153351;28;20769;-44
2021/12/22 04:59:36;;;;;;;105.22;49.35;;;;;;;-0.31;65.30;102639.38;5149673;28;20430;-42
2021/12/22 05:02:09;;;;;;;93.90;46.80;;;;;;;-0.30;65.40;102648.00;5156228;28;20925;-41
2021/12/22 05:04:42;;;;;;;95.53;48.15;;;;;;;-0.30;65.42;102633.28;5160761;28;20931;-41
2021/12/22 05:07:14;;;;;;;109.40;51.85;;;;;;;-0.34;65.27;102622.97;5161044;28;20500;-41
2021/12/22 05:09:46;;;;;;;100.30;47.47;;;;;;;-0.32;65.25;102622.06;5146983;28;20435;-41
2021/12/22 05:12:20;;;;;;;95.30;48.47;;;;;;;-0.30;65.17;102620.28;5162028;28;20406;-41
2021/12/22 05:14:52;;;;;;;99.07;46.93;;;;;;;-0.28;65.37;102620.25;5152331;28;20420;-48
2021/12/22 05:17:38;;;;;;;101.78;51.20;;;;;;;-0.29;65.21;102618.56;5146848;28;20606;-42
2021/12/22 05:20:13;;;;;;;110.50;49.30;;;;;;;-0.30;65.42;102603.88;5150429;28;20432;-41
2021/12/22 05:22:47;;;;;;;103.10;49.88;;;;;;;-0.29;65.19;102615.94;5161858;28;20419;-41
2021/12/22 05:25:20;;;;;;;110.72;50.53;;;;;;;-0.29;65.28;102614.19;5147675;28;22396;-44
2021/12/22 05:27:53;;;;;;;110.95;50.05;;;;;;;-0.29;65.22;102618.56;5164390;28;20407;-41
2021/12/22 05:30:26;;;;;;;101.10;50.75;;;;;;;-0.28;65.31;102621.13;5161350;28;20792;-41
2021/12/22 05:32:58;;;;;;;112.87;50.27;;;;;;;-0.38;65.48;102610.97;5151021;28;20422;-44
2021/12/22 05:35:31;;;;;;;88.95;43.13;;;;;;;-0.27;65.33;102625.41;5158146;28;20423;-40
2021/12/22 05:38:03;;;;;;;75.15;41.42;;;;;;;-0.28;65.51;102628.03;5160229;28;20420;-41
2021/12/22 05:40:36;;;;;;;92.72;43.45;;;;;;;-0.31;65.46;102622.91;5155920;28;20422;-42
2021/12/22 05:43:10;;;;;;;93.38;45.65;;;;;;;-0.31;65.49;102630.69;5152801;28;20424;-42
2021/12/22 05:45:42;;;;;;;90.57;42.70;;;;;;;-0.42;65.44;102605.00;5158086;28;20429;-42
2021/12/22 05:48:15;;;;;;;86.72;43.00;;;;;;;-0.32;65.41;102610.84;5146800;28;20422;-41
2021/12/22 05:50:50;;;;;;;94.93;45.28;;;;;;;-0.34;65.42;102616.06;5151046;28;20400;-42
2021/12/22 05:53:23;;;;;;;100.80;45.28;;;;;;;-0.34;65.53;102602.22;5165260;28;20915;-46
2021/12/22 05:55:57;;;;;;;98.22;43.42;;;;;;;-0.34;65.26;102602.22;5152051;28;20422;-41
2021/12/22 05:58:30;;;;;;;97.20;46.58;;;;;;;-0.35;65.47;102606.56;5152163;28;20412;-46
2021/12/22 06:01:03;;;;;;;87.28;42.60;;;;;;;-0.39;65.57;102604.09;5155641;28;20421;-41
2021/12/22 06:04:07;;;;;;;96.13;44.97;;;;;;;-0.37;65.38;102608.34;5155972;28;20406;-42
2021/12/22 06:06:39;;;;;;;96.53;42.90;;;;;;;-0.39;65.53;102617.91;5149412;28;20487;-41
2021/12/22 06:09:11;;;;;;;93.93;43.08;;;;;;;-0.39;65.38;102609.28;5160792;28;20425;-42
2021/12/22 06:11:44;;;;;;;95.95;42.22;;;;;;;-0.48;65.58;102616.38;5165332;28;20499;-41
2021/12/22 06:14:20;;;;;;;82.47;42.80;;;;;;;-0.43;65.53;102612.81;5162669;28;20921;-42
2021/12/22 06:16:53;;;;;;;99.82;42.10;;;;;;;-0.51;65.51;102613.00;5142480;28;20437;-41
2021/12/22 06:19:25;;;;;;;89.90;39.60;;;;;;;-0.44;65.53;102611.97;5156714;28;20426;-43
2021/12/22 06:21:58;;;;;;;74.60;38.40;;;;;;;-0.57;65.54;102594.97;5152948;28;20883;-49
2021/12/22 06:24:30;;;;;;;80.13;39.85;;;;;;;-0.50;65.61;102605.16;5147863;28;20509;-40
2021/12/22 06:27:03;;;;;;;79.53;38.65;;;;;;;-0.53;65.49;102605.28;5167330;28;20446;-42
2021/12/22 06:29:37;;;;;;;80.22;39.53;;;;;;;-0.56;65.46;102602.75;5170483;28;20912;-43
2021/12/22 06:32:10;;;;;;;91.82;41.55;;;;;;;-0.60;65.44;102601.09;5142982;28;20395;-41
2021/12/22 06:34:43;;;;;;;93.50;44.28;;;;;;;-0.62;65.95;102602.00;5154295;28;20426;-44
2021/12/22 06:37:15;;;;;;;110.95;44.13;;;;;;;-0.60;65.85;102600.22;5144742;28;20431;-42
2021/12/22 06:39:47;;;;;;;131.80;49.53;;;;;;;-0.62;65.76;102602.00;5147597;28;20414;-40
2021/12/22 06:42:20;;;;;;;149.15;52.22;;;;;;;-0.63;65.81;102593.38;5154310;28;20442;-42
2021/12/22 06:44:59;;;;;;;151.40;51.50;;;;;;;-0.63;65.81;102593.38;5142427;28;20438;-42
2021/12/22 06:47:32;;;;;;;134.30;49.25;;;;;;;-0.61;66.05;102594.19;5136228;28;20438;-45
2021/12/22 06:50:06;;;;;;;142.88;50.55;;;;;;;-0.59;66.12;102596.75;5137806;28;20952;-42
2021/12/22 06:52:39;;;;;;;142.13;48.13;;;;;;;-0.57;65.95;102598.41;5146829;28;20438;-42
2021/12/22 06:55:12;;;;;;;138.10;46.45;;;;;;;-0.69;66.13;102575.34;5149100;28;21027;-44
2021/12/22 06:57:44;;;;;;;138.87;47.07;;;;;;;-0.55;66.36;102593.22;5150134;28;20441;-41
2021/12/22 07:00:18;;;;;;;125.38;45.20;;;;;;;-0.51;66.15;102595.69;5149972;28;20989;-42
2021/12/22 07:02:52;;;;;;;123.03;45.33;;;;;;;-0.49;66.19;102593.91;5151734;28;20416;-43
2021/12/22 07:05:24;;;;;;;109.00;43.17;;;;;;;-0.48;66.44;102593.03;5148257;28;20479;-42
2021/12/22 07:07:57;;;;;;;102.38;40.65;;;;;;;-0.45;65.94;102591.25;5149493;28;20863;-42
2021/12/22 07:10:29;;;;;;;105.85;40.53;;;;;;;-0.44;66.41;102592.94;5140460;28;20432;-41
2021/12/22 07:13:01;;;;;;;98.07;40.38;;;;;;;-0.43;66.41;102594.66;5147588;28;20440;-42
2021/12/22 07:15:35;;;;;;;87.90;36.25;;;;;;;-0.43;66.23;102592.94;5159652;28;20953;-44
2021/12/22 07:18:10;;;;;;;89.97;37.20;;;;;;;-0.76;66.43;102542.66;5145920;28;20505;-45
2021/12/22 07:20:43;;;;;;;83.93;37.95;;;;;;;-0.40;66.38;102592.84;5146432;28;20419;-43
2021/12/22 07:23:15;;;;;;;90.28;36.38;;;;;;;-0.39;66.18;102585.91;5148135;28;20439;-42
2021/12/22 07:25:47;;;;;;;86.53;36.80;;;;;;;-0.38;66.46;102585.00;5149227;28;20435;-43
2021/12/22 07:28:20;;;;;;;98.03;37.90;;;;;;;-0.38;66.27;102566.84;5161713;28;20435;-42
2021/12/22 07:30:53;;;;;;;99.50;40.80;;;;;;;-0.36;66.12;102567.66;5158980;28;20416;-43
2021/12/22 07:33:26;;;;;;;88.75;38.42;;;;;;;-0.35;66.17;102569.38;5153334;28;20462;-43
2021/12/22 07:36:01;;;;;;;86.25;36.85;;;;;;;-0.32;66.36;102566.69;5149524;28;20495;-46
2021/12/22 07:38:43;;;;;;;92.32;39.38;;;;;;;-0.31;66.27;102571.00;5148519;28;20509;-43
2021/12/22 07:41:16;;;;;;;88.80;37.58;;;;;;;-0.29;66.46;102569.22;5143038;28;20428;-42
2021/12/22 07:43:48;;;;;;;86.67;39.73;;;;;;;-0.29;66.41;102566.63;5143129;28;20421;-45
2021/12/22 07:46:22;;;;;;;81.65;37.20;;;;;;;-0.35;66.23;102558.97;5149821;28;20422;-43
2021/12/22 07:48:55;;;;;;;89.03;38.28;;;;;;;-0.27;66.18;102567.44;5154675;28;20416;-43
2021/12/22 07:51:27;;;;;;;85.43;38.40;;;;;;;-0.25;66.17;102581.22;5148475;28;20463;-40
2021/12/22 07:54:00;;;;;;;79.70;37.47;;;;;;;-0.22;66.24;102575.97;5154256;28;20427;-45
2021/12/22 07:56:32;;;;;;;86.60;41.05;;;;;;;-0.50;66.11;102540.28;5162502;28;20420;-42
2021/12/22 07:59:05;;;;;;;76.18;35.90;;;;;;;-0.20;66.45;102584.56;5159421;28;20594;-41
2021/12/22 08:01:38;;;;;;;84.80;37.38;;;;;;;-0.18;66.46;102571.56;5163357;28;20784;-45
2021/12/22 08:04:11;;;;;;;80.87;39.07;;;;;;;-0.17;66.24;102571.50;5163680;28;20517;-44
2021/12/22 08:06:43;;;;;;;89.68;40.22;;;;;;;-0.21;66.37;102567.31;5144375;28;20426;-43
2021/12/22 08:09:16;;;;;;;75.87;36.03;;;;;;;-0.14;66.39;102579.22;5153804;28;20862;-43
2021/12/22 08:11:48;;;;;;;84.47;37.25;;;;;;;-0.12;66.43;102579.22;5138496;28;20422;-45
2021/12/22 08:14:22;;;;;;;75.38;34.70;;;;;;;-0.10;66.25;102578.25;5143619;28;20493;-43
2021/12/22 08:16:56;;;;;;;78.30;36.70;;;;;;;-0.09;66.21;102576.53;5148046;28;20529;-42
2021/12/22 08:19:28;;;;;;;72.53;36.83;;;;;;;-0.05;66.38;102573.81;5136365;28;20440;-49
2021/12/22 08:22:01;;;;;;;69.32;35.22;;;;;;;-0.05;66.32;102563.41;5144144;28;20477;-42
2021/12/22 08:24:33;;;;;;;70.10;34.65;;;;;;;0.04;66.36;102569.28;5148526;28;20438;-44
2021/12/22 08:27:06;;;;;;;60.55;33.30;;;;;;;0.08;66.18;102565.69;5146722;28;20416;-41
2021/12/22 08:29:42;;;;;;;67.97;34.45;;;;;;;0.11;66.30;102569.06;5155249;28;20414;-42
2021/12/22 08:32:19;;;;;;;58.05;33.10;;;;;;;0.17;66.31;102575.84;5153374;28;20476;-43
2021/12/22 08:34:55;;;;;;;64.67;32.80;;;;;;;0.18;66.05;102581.00;5143190;28;20416;-44
2021/12/22 08:40:17;;;;;;;57.05;30.08;;;;;;;0.26;66.23;102577.38;5155782;28;20428;-44
2021/12/22 08:42:50;;;;;;;61.67;34.58;;;;;;;0.31;66.47;102568.56;5142929;28;20876;-42
2021/12/22 08:45:23;;;;;;;58.33;33.78;;;;;;;0.38;66.36;102566.66;5153676;28;20435;-43
2021/12/22 08:47:57;;;;;;;59.92;31.85;;;;;;;0.42;66.04;102574.31;5154177;28;20416;-42
2021/12/22 08:50:29;;;;;;;59.97;33.47;;;;;;;0.48;66.22;102577.63;5143146;28;20414;-54
2021/12/22 08:53:01;;;;;;;54.88;31.20;;;;;;;0.50;66.14;102573.25;5149869;28;20893;-49
2021/12/22 08:55:34;;;;;;;57.60;30.73;;;;;;;0.58;66.21;102581.69;5139212;28;20438;-44
2021/12/22 08:58:06;;;;;;;56.92;30.50;;;;;;;0.62;66.01;102583.28;5152543;28;20512;-43
2021/12/22 09:00:39;;;;;;;56.45;31.63;;;;;;;0.61;66.30;102579.00;5142709;28;20434;-46
2021/12/22 09:03:13;;;;;;;59.07;32.13;;;;;;;0.63;66.25;102587.63;5146703;28;20428;-42
2021/12/22 09:05:45;;;;;;;58.00;30.85;;;;;;;0.67;66.62;102584.88;5152556;28;20417;-44
2021/12/22 09:08:18;;;;;;;56.57;32.23;;;;;;;0.65;66.37;102575.41;5142793;28;21534;-42
2021/12/22 09:10:50;;;;;;;54.63;29.13;;;;;;;0.72;66.35;102582.16;5155465;28;20407;-44
2021/12/22 09:13:22;;;;;;;52.60;28.15;;;;;;;0.77;66.56;102585.47;5141274;28;20501;-42
2021/12/22 09:15:55;;;;;;;51.17;28.23;;;;;;;0.81;66.62;102587.09;5148755;28;20419;-43
2021/12/22 09:18:29;;;;;;;49.95;29.88;;;;;;;0.87;66.57;102580.88;5146206;28;20624;-45
2021/12/22 09:21:01;;;;;;;44.72;27.17;;;;;;;0.89;66.24;102573.84;5147398;28;20516;-42
2021/12/22 09:23:34;;;;;;;46.83;28.50;;;;;;;0.91;66.44;102578.13;5144075;28;20519;-47
2021/12/22 09:26:07;;;;;;;48.83;27.35;;;;;;;1.01;66.42;102562.25;5155677;28;21051;-44
2021/12/22 09:28:40;;;;;;;48.40;26.40;;;;;;;0.74;66.78;102515.31;5140007;28;20516;-44
2021/12/22 09:31:14;;;;;;;47.33;26.48;;;;;;;1.10;66.55;102574.97;5154906;28;20425;-42
2021/12/22 09:33:48;;;;;;;54.10;27.65;;;;;;;1.17;66.78;102576.50;5148038;28;20577;-43
2021/12/22 09:36:21;;;;;;;44.90;26.40;;;;;;;1.12;66.33;102557.56;5144769;28;20914;-45
2021/12/22 09:38:53;;;;;;;47.63;27.55;;;;;;;1.29;66.32;102578.72;5150872;28;20442;-43
2021/12/22 09:41:26;;;;;;;49.75;28.33;;;;;;;1.37;66.50;102578.50;5138037;28;20432;-43
2021/12/22 09:43:59;;;;;;;49.55;27.75;;;;;;;1.34;66.50;102571.63;5153668;28;20416;-48
2021/12/22 09:46:34;;;;;;;50.42;28.38;;;;;;;1.50;66.25;102577.19;5149054;28;20428;-45
2021/12/22 09:49:20;;;;;;;44.97;27.35;;;;;;;1.52;65.89;102565.00;5144208;28;20503;-43
2021/12/22 09:54:47;;;;;;;53.33;27.13;;;;;;;1.65;66.21;102565.44;5150844;28;20428;-42
2021/12/22 09:57:21;;;;;;;46.55;24.98;;;;;;;1.71;66.29;102574.81;5150040;28;20492;-42
2021/12/22 09:59:56;;;;;;;47.20;26.13;;;;;;;1.75;66.39;102574.66;5149111;28;20461;-43
2021/12/22 10:02:30;;;;;;;44.53;26.00;;;;;;;1.78;66.57;102564.13;5140585;28;20416;-46
2021/12/22 10:05:05;;;;;;;53.38;27.80;;;;;;;1.84;66.67;102571.75;5146445;28;20495;-42
2021/12/22 10:07:41;;;;;;;48.97;26.67;;;;;;;1.91;66.69;102563.72;5144213;28;20515;-44
2021/12/22 10:10:15;;;;;;;44.03;24.58;;;;;;;1.94;66.49;102576.66;5143363;28;20489;-44
2021/12/22 10:12:47;;;;;;;43.00;24.50;;;;;;;1.96;66.68;102567.03;5146696;28;20434;-42
2021/12/22 10:15:20;;;;;;;43.97;25.05;;;;;;;1.93;66.58;102559.34;5155350;28;20429;-41
2021/12/22 10:17:54;;;;;;;42.92;23.05;;;;;;;2.05;66.65;102575.41;5144150;28;20417;-46
2021/12/22 10:20:28;;;;;;;38.75;23.67;;;;;;;2.01;66.87;102554.69;5145837;28;20457;-42
2021/12/22 10:23:00;;;;;;;43.30;24.02;;;;;;;2.11;66.82;102566.53;5151447;28;20878;-43
2021/12/22 10:25:33;;;;;;;39.72;25.08;;;;;;;2.14;66.93;102561.22;5151525;28;20459;-41
2021/12/22 10:28:15;;;;;;;45.00;25.70;;;;;;;2.20;66.70;102568.81;5149522;28;20507;-44
2021/12/22 10:30:51;;;;;;;52.13;26.65;;;;;;;2.24;66.79;102562.56;5155391;28;20409;-41
2021/12/22 10:33:27;;;;;;;44.03;24.53;;;;;;;2.31;66.58;102556.22;5154368;28;20418;-42
2021/12/22 10:36:04;;;;;;;44.80;25.20;;;;;;;2.31;66.76;102556.22;5149400;28;20977;-44
2021/12/22 10:38:37;;;;;;;45.75;27.33;;;;;;;2.15;66.62;102531.63;5153197;28;20431;-42
2021/12/22 10:41:12;;;;;;;37.95;24.20;;;;;;;2.28;66.83;102551.13;5147669;28;20432;-43
2021/12/22 10:43:46;;;;;;;47.33;27.35;;;;;;;2.25;67.09;102545.19;5155932;28;20418;-42
2021/12/22 10:46:27;;;;;;;43.78;26.33;;;;;;;2.01;67.02;102494.75;5149721;28;20444;-44
2021/12/22 10:49:14;;;;;;;46.58;25.45;;;;;;;2.36;67.08;102542.22;5148867;28;20561;-43
2021/12/22 10:51:58;;;;;;;40.00;25.45;;;;;;;2.40;66.94;102544.63;5151394;28;20437;-42
2021/12/22 10:54:34;;;;;;;38.55;25.05;;;;;;;2.46;66.73;102533.97;5148961;28;20538;-42
2021/12/22 10:57:09;;;;;;;44.95;24.75;;;;;;;2.42;66.64;102524.56;5141827;28;20459;-44
2021/12/22 10:59:45;;;;;;;45.10;24.95;;;;;;;2.38;66.80;102506.47;5151770;28;20800;-44
2021/12/22 11:02:24;;;;;;;39.72;23.80;;;;;;;2.55;66.88;102527.59;5142468;28;20428;-41
2021/12/22 11:04:57;;;;;;;47.15;24.27;;;;;;;2.59;66.68;102523.94;5147699;28;20422;-43
2021/12/22 11:07:40;;;;;;;36.28;23.55;;;;;;;2.57;66.58;102514.47;5147250;28;20413;-46
2021/12/22 11:10:25;;;;;;;40.10;25.13;;;;;;;2.66;66.59;102519.34;5146367;28;20429;-43
2021/12/22 11:13:03;;;;;;;46.80;26.35;;;;;;;2.70;66.61;102515.72;5154781;28;20456;-42
2021/12/22 11:15:41;;;;;;;40.67;25.85;;;;;;;2.77;66.80;102518.03;5148951;28;20906;-44
2021/12/22 11:18:26;;;;;;;44.00;25.35;;;;;;;2.83;66.51;102518.72;5151847;28;20770;-46
2021/12/22 11:21:15;;;;;;;53.80;25.83;;;;;;;2.89;66.42;102505.44;5143089;28;20413;-51
2021/12/22 11:23:49;;;;;;;45.38;26.20;;;;;;;2.93;66.15;102507.00;5150618;28;20967;-41
2021/12/22 11:26:22;;;;;;;50.13;26.73;;;;;;;2.97;66.34;102500.75;5153881;28;20407;-42
2021/12/22 11:28:54;;;;;;;39.20;23.60;;;;;;;3.04;66.35;102504.00;5157088;28;20438;-42
2021/12/22 11:31:29;;;;;;;40.45;24.65;;;;;;;3.05;66.10;102501.31;5152644;28;20451;-42
2021/12/22 11:34:03;;;;;;;36.22;23.33;;;;;;;3.05;66.31;102483.06;5149484;28;20922;-42
2021/12/22 11:36:36;;;;;;;39.00;23.90;;;;;;;3.09;66.09;102487.22;5162214;28;20528;-41
2021/12/22 11:39:11;;;;;;;36.92;21.13;;;;;;;3.07;66.15;102504.72;5157990;28;20525;-44
2021/12/22 11:41:54;;;;;;;40.63;22.85;;;;;;;3.06;66.05;102492.56;5158236;28;20850;-42
2021/12/22 11:44:28;;;;;;;39.80;22.10;;;;;;;3.12;66.06;102476.66;5154584;28;20430;-43
2021/12/22 11:47:04;;;;;;;34.13;22.08;;;;;;;3.18;65.73;102470.34;5144424;28;20760;-44
2021/12/22 11:49:48;;;;;;;36.58;23.05;;;;;;;3.22;65.71;102472.78;5152744;28;20510;-43
2021/12/22 11:52:37;;;;;;;40.13;20.20;;;;;;;3.30;65.52;102477.69;5147956;28;20543;-43
2021/12/22 11:55:18;;;;;;;36.55;22.10;;;;;;;3.26;65.47;102462.22;5136461;28;20422;-41
2021/12/22 11:57:54;;;;;;;38.50;22.38;;;;;;;3.27;65.40;102469.13;5147549;28;20854;-44